createdAt,value
2024-01-16T00:00:16.497Z,99810.12
2024-01-16T00:00:47.005Z,99812.66
2024-01-16T00:01:17.553Z,99814.69
2024-01-16T00:01:48.029Z,99815.36
2024-01-16T00:02:19.805Z,99816.41
2024-01-16T00:02:50.228Z,99818.62
2024-01-16T00:03:20.713Z,99818.48
2024-01-16T00:03:51.294Z,99819.45
2024-01-16T00:04:52.564Z,99814.93
2024-01-16T00:05:23.189Z,99812.09
2024-01-16T00:05:53.617Z,99808.92
2024-01-16T00:06:24.170Z,99806.34
2024-01-16T00:06:54.754Z,99802.55
2024-01-16T00:07:25.597Z,99799.95
2024-01-16T00:08:58.783Z,99794.39
2024-01-16T00:09:29.299Z,99794.00
2024-01-16T00:09:59.839Z,99794.34
2024-01-16T00:10:30.387Z,99794.78
2024-01-16T00:11:01.136Z,99795.25
2024-01-16T00:11:31.534Z,99794.73
2024-01-16T00:12:01.800Z,99792.48
2024-01-16T00:12:32.324Z,99790.80
2024-01-16T00:13:02.794Z,99789.27
2024-01-16T00:13:33.152Z,99790.09
2024-01-16T00:14:03.626Z,99791.42
2024-01-16T00:14:34.023Z,99792.73
2024-01-16T00:15:04.368Z,99793.97
2024-01-16T00:15:34.716Z,99795.70
2024-01-16T00:16:05.192Z,99797.08
2024-01-16T00:16:35.417Z,99796.66
2024-01-16T00:17:05.929Z,99796.28
2024-01-16T00:17:36.458Z,99799.36
2024-01-16T00:18:06.887Z,99802.77
2024-01-16T00:18:37.113Z,99803.33
2024-01-16T00:19:08.188Z,99803.91
2024-01-16T00:19:38.580Z,99804.72
2024-01-16T00:20:09.088Z,99805.61
2024-01-16T00:20:39.550Z,99806.36
2024-01-16T00:21:09.834Z,99805.88
2024-01-16T00:22:10.763Z,99812.85
2024-01-16T00:22:41.357Z,99815.77
2024-01-16T00:23:11.732Z,99819.08
2024-01-16T00:23:42.211Z,99820.86
2024-01-16T00:24:12.592Z,99820.62
2024-01-16T00:25:13.526Z,99819.81
2024-01-16T00:25:43.836Z,99821.76
2024-01-16T00:26:14.297Z,99825.22
2024-01-16T00:26:44.782Z,99826.47
2024-01-16T00:27:14.965Z,99828.30
2024-01-16T00:27:45.563Z,99829.93
2024-01-16T00:28:15.865Z,99830.73
2024-01-16T00:28:46.518Z,99830.90
2024-01-16T00:29:16.763Z,99830.50
2024-01-16T00:29:47.098Z,99830.17
2024-01-16T00:30:17.406Z,99829.61
2024-01-16T00:30:47.878Z,99829.99
2024-01-16T00:31:48.668Z,99831.78
2024-01-16T00:32:19.015Z,99830.08
2024-01-16T00:32:49.617Z,99830.13
2024-01-16T00:33:19.897Z,99828.59
2024-01-16T00:33:50.466Z,99826.66
2024-01-16T00:34:52.661Z,99826.33
2024-01-16T00:35:23.195Z,99825.03
2024-01-16T00:35:53.602Z,99824.38
2024-01-16T00:36:23.899Z,99824.05
2024-01-16T00:36:54.304Z,99820.08
2024-01-16T00:37:24.631Z,99819.59
2024-01-16T00:37:55.119Z,99820.72
2024-01-16T00:38:25.537Z,99818.88
2024-01-16T00:38:55.890Z,99817.82
2024-01-16T00:39:26.631Z,99816.95
2024-01-16T00:39:57.015Z,99814.84
2024-01-16T00:40:27.357Z,99817.54
2024-01-16T00:41:28.438Z,99820.98
2024-01-16T00:41:58.740Z,99820.92
2024-01-16T00:42:29.102Z,99820.13
2024-01-16T00:43:00.432Z,99821.27
2024-01-16T00:43:30.833Z,99824.70
2024-01-16T00:44:01.292Z,99825.99
2024-01-16T00:45:02.321Z,99823.95
2024-01-16T00:45:32.762Z,99822.90
2024-01-16T00:46:03.261Z,99822.52
2024-01-16T00:46:33.695Z,99820.57
2024-01-16T00:47:04.040Z,99818.22
2024-01-16T00:47:34.555Z,99814.66
2024-01-16T00:48:36.290Z,99817.28
2024-01-16T00:49:06.738Z,99816.55
2024-01-16T00:49:37.052Z,99816.33
2024-01-16T00:50:07.401Z,99811.05
2024-01-16T00:50:37.852Z,99812.85
2024-01-16T00:51:08.205Z,99812.31
2024-01-16T00:51:38.633Z,99811.41
2024-01-16T00:52:09.056Z,99806.81
2024-01-16T00:52:39.349Z,99809.56
2024-01-16T00:53:09.816Z,99803.39
2024-01-16T00:53:40.549Z,99799.93
2024-01-16T00:54:10.769Z,99801.30
2024-01-16T00:54:41.312Z,99798.06
2024-01-16T00:55:11.798Z,99798.71
2024-01-16T00:55:42.144Z,99800.81
2024-01-16T00:56:12.622Z,99800.50
2024-01-16T00:56:43.092Z,99802.20
2024-01-16T00:57:13.440Z,99802.20
2024-01-16T00:58:14.374Z,99811.59
2024-01-16T00:58:44.933Z,99814.84
2024-01-16T00:59:15.386Z,99819.45
2024-01-16T00:59:45.782Z,99820.80
2024-01-16T01:00:16.165Z,99822.03
2024-01-16T01:00:46.587Z,99827.02
2024-01-16T01:01:16.903Z,99828.80
2024-01-16T01:01:47.437Z,99830.84
2024-01-16T01:02:17.772Z,99828.30
2024-01-16T01:02:48.234Z,99826.48
2024-01-16T01:03:18.642Z,99824.95
2024-01-16T01:03:49.174Z,99824.28
2024-01-16T01:04:20.906Z,99824.94
2024-01-16T01:04:51.266Z,99826.86
2024-01-16T01:05:21.816Z,99826.45
2024-01-16T01:05:52.135Z,99826.28
2024-01-16T01:06:22.560Z,99826.17
2024-01-16T01:06:52.931Z,99827.31
2024-01-16T01:07:24.273Z,99826.38
2024-01-16T01:07:53.645Z,99827.77
2024-01-16T01:08:24.052Z,99821.16
2024-01-16T01:08:54.734Z,99814.27
2024-01-16T01:09:25.074Z,99822.37
2024-01-16T01:09:55.642Z,99819.86
2024-01-16T01:10:26.096Z,99819.35
2024-01-16T01:11:27.118Z,99828.81
2024-01-16T01:11:57.592Z,99826.20
2024-01-16T01:12:27.973Z,99828.32
2024-01-16T01:12:58.360Z,99829.81
2024-01-16T01:13:28.759Z,99828.42
2024-01-16T01:13:59.572Z,99829.62
2024-01-16T01:14:29.965Z,99825.22
2024-01-16T01:15:00.534Z,99823.02
2024-01-16T01:15:30.760Z,99821.59
2024-01-16T01:16:01.229Z,99826.69
2024-01-16T01:16:31.562Z,99823.19
2024-01-16T01:17:02.682Z,99816.00
2024-01-16T01:18:03.579Z,99814.97
2024-01-16T01:18:33.997Z,99816.47
2024-01-16T01:19:04.936Z,99817.02
2024-01-16T01:19:35.335Z,99820.09
2024-01-16T01:20:05.691Z,99825.41
2024-01-16T01:20:36.144Z,99823.58
2024-01-16T01:21:06.432Z,99826.75
2024-01-16T01:21:36.821Z,99832.82
2024-01-16T01:22:07.266Z,99835.12
2024-01-16T01:22:37.965Z,99841.61
2024-01-16T01:23:09.156Z,99848.73
2024-01-16T01:23:39.546Z,99857.40
2024-01-16T01:24:40.718Z,99863.74
2024-01-16T01:25:11.215Z,99864.70
2024-01-16T01:25:41.634Z,99860.81
2024-01-16T01:26:12.067Z,99856.41
2024-01-16T01:26:42.593Z,99861.42
2024-01-16T01:27:12.845Z,99866.34
2024-01-16T01:28:14.006Z,99878.91
2024-01-16T01:28:44.520Z,99877.12
2024-01-16T01:29:15.160Z,99872.75
2024-01-16T01:29:45.521Z,99870.49
2024-01-16T01:30:15.893Z,99874.95
2024-01-16T01:30:46.333Z,99879.13
2024-01-16T01:31:16.768Z,99881.10
2024-01-16T01:31:47.148Z,99880.93
2024-01-16T01:32:17.572Z,99887.79
2024-01-16T01:32:48.123Z,99893.84
2024-01-16T01:33:49.145Z,99900.30
2024-01-16T01:34:52.575Z,99904.25
2024-01-16T01:35:22.997Z,99905.84
2024-01-16T01:35:53.438Z,99906.92
2024-01-16T01:36:23.925Z,99906.80
2024-01-16T01:36:54.342Z,99907.22
2024-01-16T01:37:24.810Z,99907.82
2024-01-16T01:37:55.228Z,99905.99
2024-01-16T01:38:56.430Z,99905.64
2024-01-16T01:39:27.003Z,99906.73
2024-01-16T01:39:57.416Z,99907.48
2024-01-16T01:40:27.864Z,99909.55
2024-01-16T01:40:58.251Z,99912.08
2024-01-16T01:41:28.695Z,99912.04
2024-01-16T01:41:59.203Z,99911.90
2024-01-16T01:42:29.505Z,99911.83
2024-01-16T01:42:59.992Z,99916.39
2024-01-16T01:43:30.536Z,99915.45
2024-01-16T01:44:00.928Z,99917.80
2024-01-16T01:44:31.548Z,99916.78
2024-01-16T01:45:01.977Z,99915.99
2024-01-16T01:45:32.380Z,99917.71
2024-01-16T01:46:02.813Z,99920.11
2024-01-16T01:46:33.245Z,99921.55
2024-01-16T01:47:03.709Z,99923.36
2024-01-16T01:47:34.216Z,99925.91
2024-01-16T01:48:04.700Z,99928.19
2024-01-16T01:48:35.236Z,99928.50
2024-01-16T01:49:05.695Z,99929.44
2024-01-16T01:50:08.651Z,99929.38
2024-01-16T01:50:39.464Z,99927.20
2024-01-16T01:51:10.058Z,99926.23
2024-01-16T01:51:40.409Z,99925.43
2024-01-16T01:52:41.753Z,99927.58
2024-01-16T01:53:12.182Z,99930.59
2024-01-16T01:53:42.652Z,99934.61
2024-01-16T01:54:13.085Z,99938.12
2024-01-16T01:54:43.507Z,99940.56
2024-01-16T01:55:14.273Z,99944.86
2024-01-16T01:56:15.406Z,99952.77
2024-01-16T01:56:46.004Z,99958.73
2024-01-16T01:57:16.346Z,99960.28
2024-01-16T01:57:46.798Z,99964.41
2024-01-16T01:58:17.369Z,99963.16
2024-01-16T01:58:47.789Z,99960.00
2024-01-16T01:59:18.402Z,99957.91
2024-01-16T01:59:48.694Z,99954.47
2024-01-16T02:00:19.478Z,99954.40
2024-01-16T02:00:49.815Z,99958.55
2024-01-16T02:01:20.210Z,99965.16
2024-01-16T02:01:50.684Z,99968.20
2024-01-16T02:02:21.201Z,99969.59
2024-01-16T02:02:51.714Z,99969.70
2024-01-16T02:03:22.140Z,99969.90
2024-01-16T02:03:52.609Z,99969.45
2024-01-16T02:04:23.031Z,99966.70
2024-01-16T02:04:53.558Z,99963.44
2024-01-16T02:05:24.280Z,99959.72
2024-01-16T02:05:54.682Z,99958.43
2024-01-16T02:06:25.073Z,99961.12
2024-01-16T02:06:55.455Z,99963.59
2024-01-16T02:07:25.894Z,99965.98
2024-01-16T02:07:56.423Z,99966.56
2024-01-16T02:08:26.929Z,99968.05
2024-01-16T02:09:27.991Z,99968.38
2024-01-16T02:09:58.546Z,99970.10
2024-01-16T02:10:29.219Z,99972.39
2024-01-16T02:10:59.561Z,99972.81
2024-01-16T02:11:30.101Z,99970.56
2024-01-16T02:12:00.319Z,99970.33
2024-01-16T02:12:30.609Z,99968.80
2024-01-16T02:13:01.024Z,99972.05
2024-01-16T02:13:31.342Z,99972.23
2024-01-16T02:14:01.635Z,99973.39
2024-01-16T02:14:32.038Z,99975.36
2024-01-16T02:15:02.269Z,99974.97
2024-01-16T02:15:32.710Z,99976.86
2024-01-16T02:16:03.082Z,99975.58
2024-01-16T02:16:33.379Z,99976.05
2024-01-16T02:17:03.730Z,99977.53
2024-01-16T02:17:34.136Z,99979.66
2024-01-16T02:18:04.618Z,99982.91
2024-01-16T02:18:34.905Z,99984.45
2024-01-16T02:19:05.168Z,99986.58
2024-01-16T02:19:35.589Z,99987.41
2024-01-16T02:20:05.807Z,99989.95
2024-01-16T02:20:36.343Z,99990.66
2024-01-16T02:21:06.634Z,99993.61
2024-01-16T02:21:38.309Z,99991.89
2024-01-16T02:22:07.329Z,99990.94
2024-01-16T02:22:37.612Z,99991.75
2024-01-16T02:23:07.988Z,99992.09
2024-01-16T02:23:38.390Z,99994.03
2024-01-16T02:24:08.566Z,99993.89
2024-01-16T02:24:38.894Z,99994.30
2024-01-16T02:25:09.178Z,99995.86
2024-01-16T02:25:39.778Z,99997.00
2024-01-16T02:26:10.083Z,99998.20
2024-01-16T02:26:40.434Z,99997.50
2024-01-16T02:27:10.696Z,99995.95
2024-01-16T02:27:41.061Z,99997.27
2024-01-16T02:28:11.328Z,99997.77
2024-01-16T02:28:41.744Z,99997.62
2024-01-16T02:29:12.185Z,99997.80
2024-01-16T02:29:42.556Z,99998.95
2024-01-16T02:30:12.771Z,100001.81
2024-01-16T02:30:43.298Z,100002.64
2024-01-16T02:31:13.528Z,100004.33
2024-01-16T02:31:43.880Z,100005.81
2024-01-16T02:32:14.749Z,100006.48
2024-01-16T02:32:44.633Z,100008.50
2024-01-16T02:33:15.049Z,100009.73
2024-01-16T02:33:45.394Z,100010.78
2024-01-16T02:34:15.809Z,100011.38
2024-01-16T02:34:46.052Z,100014.44
2024-01-16T02:35:16.430Z,100015.41
2024-01-16T02:35:46.973Z,100017.20
2024-01-16T02:36:17.161Z,100020.06
2024-01-16T02:36:47.468Z,100022.66
2024-01-16T02:37:17.867Z,100025.48
2024-01-16T02:37:48.203Z,100029.38
2024-01-16T02:38:18.612Z,100033.05
2024-01-16T02:38:49.705Z,100034.91
2024-01-16T02:39:21.357Z,100035.98
2024-01-16T02:39:51.759Z,100037.52
2024-01-16T02:40:52.857Z,100037.54
2024-01-16T02:41:23.236Z,100040.30
2024-01-16T02:41:53.723Z,100040.53
2024-01-16T02:42:23.993Z,100039.34
2024-01-16T02:42:54.420Z,100039.41
2024-01-16T02:43:55.466Z,100040.23
2024-01-16T02:44:25.912Z,100040.19
2024-01-16T02:44:56.275Z,100038.31
2024-01-16T02:45:26.672Z,100037.58
2024-01-16T02:45:58.143Z,100039.03
2024-01-16T02:46:28.503Z,100040.60
2024-01-16T02:47:29.679Z,100041.75
2024-01-16T02:48:00.231Z,100040.67
2024-01-16T02:48:30.588Z,100041.43
2024-01-16T02:49:00.896Z,100042.80
2024-01-16T02:49:31.432Z,100043.21
2024-01-16T02:50:01.726Z,100041.92
2024-01-16T02:50:32.145Z,100040.69
2024-01-16T02:51:33.818Z,100043.30
2024-01-16T02:52:04.162Z,100042.17
2024-01-16T02:52:34.626Z,100042.98
2024-01-16T02:53:05.172Z,100045.16
2024-01-16T02:53:35.597Z,100045.48
2024-01-16T02:54:05.844Z,100047.52
2024-01-16T02:54:36.336Z,100050.02
2024-01-16T02:55:06.709Z,100051.16
2024-01-16T02:55:37.038Z,100053.75
2024-01-16T02:56:07.501Z,100053.43
2024-01-16T02:56:38.125Z,100051.42
2024-01-16T02:57:08.365Z,100052.30
2024-01-16T02:57:38.726Z,100050.52
2024-01-16T02:58:09.157Z,100053.27
2024-01-16T02:58:39.585Z,100056.19
2024-01-16T02:59:10.102Z,100057.91
2024-01-16T02:59:40.419Z,100060.91
2024-01-16T03:00:10.708Z,100060.36
2024-01-16T03:00:41.132Z,100061.41
2024-01-16T03:01:11.558Z,100062.88
2024-01-16T03:01:42.174Z,100065.66
2024-01-16T03:02:12.641Z,100064.54
2024-01-16T03:02:43.004Z,100064.39
2024-01-16T03:03:43.850Z,100064.52
2024-01-16T03:04:14.058Z,100066.16
2024-01-16T03:04:44.490Z,100068.52
2024-01-16T03:05:14.907Z,100069.42
2024-01-16T03:05:45.287Z,100070.57
2024-01-16T03:06:46.443Z,100067.75
2024-01-16T03:07:16.508Z,100069.20
2024-01-16T03:07:46.868Z,100070.77
2024-01-16T03:08:17.349Z,100070.46
2024-01-16T03:08:47.748Z,100072.08
2024-01-16T03:09:48.528Z,100074.66
2024-01-16T03:10:18.813Z,100077.69
2024-01-16T03:10:49.199Z,100079.22
2024-01-16T03:11:19.712Z,100080.67
2024-01-16T03:11:50.325Z,100082.78
2024-01-16T03:12:20.523Z,100082.97
2024-01-16T03:12:50.923Z,100082.26
2024-01-16T03:13:21.280Z,100084.04
2024-01-16T03:13:51.648Z,100085.25
2024-01-16T03:14:22.155Z,100084.12
2024-01-16T03:14:53.085Z,100083.14
2024-01-16T03:15:23.522Z,100082.44
2024-01-16T03:15:53.931Z,100084.06
2024-01-16T03:16:24.363Z,100084.55
2024-01-16T03:16:56.115Z,100084.94
2024-01-16T03:17:26.536Z,100085.75
2024-01-16T03:17:57.068Z,100085.43
2024-01-16T03:18:27.438Z,100086.08
2024-01-16T03:18:58.218Z,100086.89
2024-01-16T03:19:28.540Z,100085.99
2024-01-16T03:19:58.914Z,100085.83
2024-01-16T03:20:29.457Z,100087.12
2024-01-16T03:20:59.807Z,100090.15
2024-01-16T03:21:30.152Z,100090.47
2024-01-16T03:22:01.133Z,100090.66
2024-01-16T03:22:31.485Z,100091.68
2024-01-16T03:23:01.963Z,100092.75
2024-01-16T03:23:32.351Z,100093.97
2024-01-16T03:24:02.873Z,100095.27
2024-01-16T03:24:33.227Z,100096.88
2024-01-16T03:25:03.754Z,100097.96
2024-01-16T03:25:33.996Z,100098.61
2024-01-16T03:26:34.983Z,100097.62
2024-01-16T03:27:05.567Z,100098.20
2024-01-16T03:27:35.891Z,100098.68
2024-01-16T03:28:06.278Z,100097.88
2024-01-16T03:28:36.675Z,100096.00
2024-01-16T03:29:37.752Z,100098.59
2024-01-16T03:30:08.418Z,100103.30
2024-01-16T03:30:38.486Z,100105.24
2024-01-16T03:31:08.890Z,100108.10
2024-01-16T03:31:39.206Z,100108.66
2024-01-16T03:32:09.818Z,100111.09
2024-01-16T03:32:40.179Z,100111.58
2024-01-16T03:33:10.813Z,100111.84
2024-01-16T03:33:41.011Z,100114.77
2024-01-16T03:34:11.365Z,100115.00
2024-01-16T03:34:41.871Z,100115.97
2024-01-16T03:35:12.132Z,100118.08
2024-01-16T03:36:12.923Z,100119.48
2024-01-16T03:36:43.350Z,100119.70
2024-01-16T03:37:13.986Z,100117.61
2024-01-16T03:37:44.334Z,100118.41
2024-01-16T03:38:14.928Z,100119.48
2024-01-16T03:38:45.579Z,100119.72
2024-01-16T03:39:15.840Z,100120.85
2024-01-16T03:39:46.296Z,100121.98
2024-01-16T03:40:16.679Z,100123.36
2024-01-16T03:40:47.014Z,100124.42
2024-01-16T03:41:17.432Z,100125.06
2024-01-16T03:41:47.985Z,100123.36
2024-01-16T03:42:19.543Z,100123.46
2024-01-16T03:42:49.834Z,100124.27
2024-01-16T03:43:20.396Z,100125.08
2024-01-16T03:43:50.793Z,100125.16
2024-01-16T03:44:21.277Z,100124.67
2024-01-16T03:44:51.799Z,100125.16
2024-01-16T03:45:22.271Z,100124.45
2024-01-16T03:45:52.608Z,100122.58
2024-01-16T03:46:22.999Z,100123.06
2024-01-16T03:46:53.389Z,100124.80
2024-01-16T03:47:23.987Z,100126.62
2024-01-16T03:47:54.356Z,100127.77
2024-01-16T03:48:24.767Z,100129.33
2024-01-16T03:48:56.035Z,100129.49
2024-01-16T03:49:26.498Z,100133.28
2024-01-16T03:49:57.503Z,100133.70
2024-01-16T03:50:28.029Z,100134.84
2024-01-16T03:50:58.491Z,100134.84
2024-01-16T03:51:28.962Z,100135.51
2024-01-16T03:51:59.432Z,100134.38
2024-01-16T03:53:01.130Z,100135.67
2024-01-16T03:53:31.666Z,100137.52
2024-01-16T03:54:02.153Z,100136.73
2024-01-16T03:54:32.699Z,100139.32
2024-01-16T03:55:03.111Z,100140.69
2024-01-16T03:55:33.567Z,100141.34
2024-01-16T03:56:34.690Z,100142.74
2024-01-16T03:57:05.054Z,100142.42
2024-01-16T03:57:35.624Z,100142.81
2024-01-16T03:58:06.189Z,100142.11
2024-01-16T03:58:36.604Z,100140.33
2024-01-16T03:59:07.086Z,100140.66
2024-01-16T03:59:37.582Z,100141.62
2024-01-16T04:00:08.010Z,100142.02
2024-01-16T04:00:38.564Z,100144.30
2024-01-16T04:01:08.867Z,100144.53
2024-01-16T04:01:39.336Z,100145.98
2024-01-16T04:02:09.700Z,100146.16
2024-01-16T04:02:40.180Z,100147.39
2024-01-16T04:03:10.669Z,100148.04
2024-01-16T04:03:41.176Z,100147.88
2024-01-16T04:04:11.647Z,100148.76
2024-01-16T04:04:42.175Z,100148.59
2024-01-16T04:05:12.670Z,100146.75
2024-01-16T04:06:13.702Z,100145.31
2024-01-16T04:06:43.990Z,100145.38
2024-01-16T04:07:14.430Z,100146.52
2024-01-16T04:07:45.153Z,100146.84
2024-01-16T04:08:15.828Z,100147.08
2024-01-16T04:08:46.345Z,100145.64
2024-01-16T04:09:47.148Z,100146.94
2024-01-16T04:10:17.599Z,100147.52
2024-01-16T04:10:48.158Z,100149.47
2024-01-16T04:11:18.497Z,100148.84
2024-01-16T04:11:48.886Z,100150.46
2024-01-16T04:12:19.221Z,100151.18
2024-01-16T04:12:49.550Z,100151.50
2024-01-16T04:13:20.062Z,100153.45
2024-01-16T04:13:50.371Z,100154.42
2024-01-16T04:14:21.964Z,100154.98
2024-01-16T04:14:53.266Z,100157.73
2024-01-16T04:15:23.923Z,100159.14
2024-01-16T04:15:54.161Z,100160.11
2024-01-16T04:16:24.430Z,100160.77
2024-01-16T04:16:54.863Z,100159.54
2024-01-16T04:17:25.234Z,100158.41
2024-01-16T04:17:55.594Z,100158.02
2024-01-16T04:18:26.140Z,100157.45
2024-01-16T04:18:56.503Z,100159.06
2024-01-16T04:19:26.787Z,100158.03
2024-01-16T04:19:57.243Z,100157.14
2024-01-16T04:20:27.531Z,100158.70
2024-01-16T04:20:57.895Z,100156.51
2024-01-16T04:21:28.133Z,100154.47
2024-01-16T04:21:58.602Z,100154.00
2024-01-16T04:22:28.834Z,100154.00
2024-01-16T04:22:59.139Z,100151.59
2024-01-16T04:23:29.629Z,100151.86
2024-01-16T04:23:59.932Z,100151.52
2024-01-16T04:24:30.255Z,100151.95
2024-01-16T04:25:00.709Z,100152.42
2024-01-16T04:25:30.998Z,100153.48
2024-01-16T04:26:01.388Z,100152.03
2024-01-16T04:26:31.792Z,100153.16
2024-01-16T04:27:02.174Z,100152.95
2024-01-16T04:27:32.453Z,100152.86
2024-01-16T04:28:03.510Z,100152.61
2024-01-16T04:29:04.497Z,100153.27
2024-01-16T04:29:34.914Z,100153.70
2024-01-16T04:30:05.394Z,100154.37
2024-01-16T04:30:35.671Z,100154.60
2024-01-16T04:31:05.915Z,100152.59
2024-01-16T04:31:36.421Z,100154.12
2024-01-16T04:32:06.663Z,100154.14
2024-01-16T04:32:37.004Z,100155.03
2024-01-16T04:33:07.496Z,100155.20
2024-01-16T04:33:37.846Z,100154.73
2024-01-16T04:34:08.055Z,100155.24
2024-01-16T04:34:38.392Z,100154.83
2024-01-16T04:35:08.806Z,100153.64
2024-01-16T04:35:39.125Z,100151.92
2024-01-16T04:36:09.418Z,100151.78
2024-01-16T04:36:39.789Z,100151.69
2024-01-16T04:37:10.126Z,100153.41
2024-01-16T04:37:40.406Z,100154.95
2024-01-16T04:38:10.840Z,100156.09
2024-01-16T04:38:41.443Z,100157.08
2024-01-16T04:39:11.706Z,100157.41
2024-01-16T04:39:42.010Z,100158.56
2024-01-16T04:40:12.406Z,100158.25
2024-01-16T04:40:42.805Z,100159.08
2024-01-16T04:41:13.195Z,100158.93
2024-01-16T04:41:43.535Z,100161.27
2024-01-16T04:42:13.756Z,100160.05
2024-01-16T04:42:44.083Z,100161.12
2024-01-16T04:43:14.522Z,100161.80
2024-01-16T04:43:45.330Z,100162.51
2024-01-16T04:44:15.658Z,100163.91
2024-01-16T04:44:46.120Z,100164.63
2024-01-16T04:45:16.366Z,100166.11
2024-01-16T04:45:46.653Z,100166.19
2024-01-16T04:46:16.980Z,100166.52
2024-01-16T04:46:47.443Z,100164.83
2024-01-16T04:47:17.848Z,100166.21
2024-01-16T04:47:49.208Z,100166.55
2024-01-16T04:48:19.575Z,100167.38
2024-01-16T04:48:50.169Z,100167.61
2024-01-16T04:49:21.560Z,100170.31
2024-01-16T04:49:52.150Z,100169.59
2024-01-16T04:50:22.615Z,100171.69
2024-01-16T04:51:23.424Z,100171.77
2024-01-16T04:51:53.809Z,100172.58
2024-01-16T04:52:24.131Z,100172.74
2024-01-16T04:52:54.634Z,100170.97
2024-01-16T04:53:24.920Z,100171.56
2024-01-16T04:54:26.879Z,100172.55
2024-01-16T04:54:57.368Z,100172.23
2024-01-16T04:55:27.760Z,100171.98
2024-01-16T04:55:59.371Z,100172.05
2024-01-16T04:56:30.212Z,100172.64
2024-01-16T04:57:00.629Z,100172.80
2024-01-16T04:57:30.883Z,100172.50
2024-01-16T04:58:01.530Z,100172.73
2024-01-16T04:58:31.841Z,100173.86
2024-01-16T04:59:02.696Z,100171.77
2024-01-16T04:59:33.635Z,100173.72
2024-01-16T05:00:03.984Z,100174.27
2024-01-16T05:00:34.400Z,100175.19
2024-01-16T05:01:05.339Z,100178.50
2024-01-16T05:01:36.549Z,100179.58
2024-01-16T05:02:07.010Z,100179.59
2024-01-16T05:02:37.385Z,100179.50
2024-01-16T05:03:07.733Z,100179.83
2024-01-16T05:03:38.456Z,100179.20
2024-01-16T05:04:09.251Z,100180.17
2024-01-16T05:04:40.106Z,100179.92
2024-01-16T05:05:10.647Z,100180.34
2024-01-16T05:05:41.230Z,100181.80
2024-01-16T05:06:11.801Z,100181.98
2024-01-16T05:06:42.255Z,100181.57
2024-01-16T05:07:12.510Z,100179.73
2024-01-16T05:07:42.808Z,100179.64
2024-01-16T05:08:13.239Z,100181.59
2024-01-16T05:09:14.040Z,100182.89
2024-01-16T05:09:45.016Z,100181.59
2024-01-16T05:10:15.711Z,100181.84
2024-01-16T05:10:46.558Z,100180.48
2024-01-16T05:11:17.316Z,100179.26
2024-01-16T05:11:48.538Z,100180.82
2024-01-16T05:12:18.756Z,100180.50
2024-01-16T05:12:49.753Z,100181.86
2024-01-16T05:13:20.352Z,100181.38
2024-01-16T05:13:51.199Z,100182.37
2024-01-16T05:14:22.043Z,100181.14
2024-01-16T05:14:52.885Z,100178.56
2024-01-16T05:15:23.574Z,100176.89
2024-01-16T05:15:54.407Z,100176.56
2024-01-16T05:16:25.204Z,100177.70
2024-01-16T05:16:55.639Z,100180.12
2024-01-16T05:17:26.075Z,100180.44
2024-01-16T05:17:56.976Z,100180.22
2024-01-16T05:18:27.684Z,100181.19
2024-01-16T05:18:58.478Z,100180.94
2024-01-16T05:19:29.320Z,100183.95
2024-01-16T05:20:00.201Z,100184.84
2024-01-16T05:21:01.835Z,100188.58
2024-01-16T05:21:32.694Z,100189.02
2024-01-16T05:22:03.156Z,100190.05
2024-01-16T05:22:33.474Z,100191.61
2024-01-16T05:23:03.905Z,100192.32
2024-01-16T05:23:34.649Z,100189.48
2024-01-16T05:24:36.084Z,100189.01
2024-01-16T05:25:06.478Z,100190.16
2024-01-16T05:25:37.212Z,100191.55
2024-01-16T05:26:08.090Z,100190.82
2024-01-16T05:26:38.409Z,100190.03
2024-01-16T05:27:08.762Z,100188.75
2024-01-16T05:27:39.265Z,100191.66
2024-01-16T05:28:09.471Z,100191.89
2024-01-16T05:28:39.835Z,100192.16
2024-01-16T05:29:10.750Z,100193.20
2024-01-16T05:29:44.292Z,100195.55
2024-01-16T05:30:12.187Z,100196.86
2024-01-16T05:30:42.437Z,100196.71
2024-01-16T05:31:12.781Z,100197.79
2024-01-16T05:31:43.211Z,100200.45
2024-01-16T05:32:13.608Z,100199.66
2024-01-16T05:32:43.972Z,100199.56
2024-01-16T05:33:14.963Z,100197.64
2024-01-16T05:33:45.622Z,100197.98
2024-01-16T05:34:47.171Z,100198.23
2024-01-16T05:35:17.810Z,100198.67
2024-01-16T05:35:48.144Z,100199.49
2024-01-16T05:36:18.479Z,100199.64
2024-01-16T05:36:48.888Z,100199.49
2024-01-16T05:37:19.281Z,100199.34
2024-01-16T05:38:20.599Z,100197.36
2024-01-16T05:38:51.420Z,100196.34
2024-01-16T05:39:21.664Z,100197.95
2024-01-16T05:39:51.998Z,100197.25
2024-01-16T05:40:23.000Z,100198.89
2024-01-16T05:40:53.694Z,100199.84
2024-01-16T05:41:54.687Z,100201.76
2024-01-16T05:42:25.013Z,100202.98
2024-01-16T05:42:55.741Z,100205.02
2024-01-16T05:43:26.524Z,100206.34
2024-01-16T05:43:56.901Z,100207.32
2024-01-16T05:44:27.223Z,100208.48
2024-01-16T05:44:57.604Z,100209.12
2024-01-16T05:45:28.037Z,100210.53
2024-01-16T05:45:59.373Z,100211.59
2024-01-16T05:46:29.750Z,100212.75
2024-01-16T05:47:00.806Z,100213.97
2024-01-16T05:47:31.831Z,100215.35
2024-01-16T05:48:02.451Z,100216.83
2024-01-16T05:49:03.674Z,100217.34
2024-01-16T05:49:34.457Z,100218.72
2024-01-16T05:50:04.745Z,100218.73
2024-01-16T05:50:35.329Z,100220.12
2024-01-16T05:51:06.178Z,100219.81
2024-01-16T05:51:36.944Z,100219.50
2024-01-16T05:52:07.365Z,100218.61
2024-01-16T05:52:37.979Z,100219.44
2024-01-16T05:53:08.341Z,100220.52
2024-01-16T05:53:38.783Z,100223.12
2024-01-16T05:54:09.054Z,100223.67
2024-01-16T05:54:39.533Z,100226.38
2024-01-16T05:55:09.886Z,100227.74
2024-01-16T05:56:11.617Z,100226.53
2024-01-16T05:56:42.069Z,100225.25
2024-01-16T05:57:12.460Z,100225.19
2024-01-16T05:57:42.831Z,100224.69
2024-01-16T05:58:15.053Z,100225.35
2024-01-16T05:58:44.070Z,100224.48
2024-01-16T05:59:45.969Z,100226.44
2024-01-16T06:00:16.572Z,100226.42
2024-01-16T06:00:46.940Z,100225.95
2024-01-16T06:01:17.506Z,100228.55
2024-01-16T06:01:47.894Z,100230.94
2024-01-16T06:02:18.318Z,100230.92
2024-01-16T06:02:48.665Z,100231.52
2024-01-16T06:03:18.965Z,100231.44
2024-01-16T06:03:49.589Z,100233.88
2024-01-16T06:04:19.819Z,100233.41
2024-01-16T06:04:50.020Z,100232.67
2024-01-16T06:05:20.388Z,100234.14
2024-01-16T06:05:50.804Z,100234.73
2024-01-16T06:06:21.326Z,100235.54
2024-01-16T06:06:51.693Z,100238.30
2024-01-16T06:07:21.933Z,100237.41
2024-01-16T06:07:52.344Z,100239.38
2024-01-16T06:08:22.601Z,100240.03
2024-01-16T06:08:53.120Z,100241.02
2024-01-16T06:09:23.359Z,100242.98
2024-01-16T06:09:53.736Z,100245.42
2024-01-16T06:10:24.364Z,100245.27
2024-01-16T06:10:54.488Z,100247.21
2024-01-16T06:11:25.053Z,100246.97
2024-01-16T06:11:55.416Z,100248.27
2024-01-16T06:12:25.734Z,100250.06
2024-01-16T06:12:56.246Z,100249.11
2024-01-16T06:13:26.499Z,100250.25
2024-01-16T06:13:56.894Z,100248.70
2024-01-16T06:14:27.681Z,100249.42
2024-01-16T06:14:58.442Z,100251.06
2024-01-16T06:15:29.235Z,100252.19
2024-01-16T06:16:00.031Z,100251.88
2024-01-16T06:16:30.586Z,100252.37